createdAt,value
2023-03-21T00:00:57.506Z,7.4
2023-03-21T00:22:05.746Z,7.4
2023-03-21T00:41:38.898Z,7
2023-03-21T01:01:04.875Z,6.9
2023-03-21T01:21:12.406Z,6.6
2023-03-21T01:41:14.127Z,6.6
2023-03-21T02:01:04.361Z,6.4
2023-03-21T02:20:57.265Z,6.4
2023-03-21T02:41:03.526Z,6.2
2023-03-21T03:00:58.434Z,6.2
2023-03-21T03:20:59.115Z,6
2023-03-21T03:40:59.172Z,6
2023-03-21T04:00:58.082Z,6.1
2023-03-21T04:20:57.881Z,5.9
2023-03-21T04:40:58.607Z,5.9
2023-03-21T05:01:19.814Z,5.8
2023-03-21T05:21:02.186Z,5.3
2023-03-21T05:41:28.313Z,5.6
2023-03-21T06:01:22.864Z,5.6
2023-03-21T06:21:31.231Z,5.8
2023-03-21T06:41:24.984Z,5.8
2023-03-21T07:01:34.543Z,6.5
2023-03-21T07:21:32.509Z,7.2
2023-03-21T07:41:25.823Z,7.2
2023-03-21T08:01:37.819Z,8.4
2023-03-21T08:21:32.702Z,8.8
2023-03-21T08:41:33.865Z,9.2
2023-03-21T09:01:34.502Z,9.5
2023-03-21T09:21:30.672Z,9.7
2023-03-21T09:41:34.275Z,10.2
2023-03-21T10:01:35.893Z,10.7
2023-03-21T10:22:13.622Z,10.6
2023-03-21T10:41:24.971Z,11
2023-03-21T11:01:32.748Z,11.9
2023-03-21T11:21:25.629Z,11.9
2023-03-21T11:41:30.547Z,12.9
2023-03-21T12:01:28.822Z,12.9
2023-03-21T12:21:26.674Z,13.4
2023-03-21T12:41:29.174Z,14.3
2023-03-21T13:01:26.474Z,14.2
2023-03-21T13:21:30.419Z,15
2023-03-21T13:41:31.527Z,15
2023-03-21T14:01:25.367Z,15.4
2023-03-21T14:21:45.062Z,16
2023-03-21T14:41:31.624Z,16.9
2023-03-21T15:01:28.011Z,16.9
2023-03-21T15:21:24.479Z,16.9
2023-03-21T15:41:29.185Z,16.6
2023-03-21T16:01:25.692Z,16.6
2023-03-21T16:21:32.428Z,16.5
2023-03-21T16:41:31.812Z,16.2
2023-03-21T17:01:29.125Z,16.2
2023-03-21T17:21:32.013Z,15.6
2023-03-21T17:41:24.183Z,15.6
2023-03-21T18:00:58.675Z,15.2
2023-03-21T18:21:17.561Z,14.7
2023-03-21T18:40:58.607Z,14.2
2023-03-21T19:01:02.721Z,13.5
2023-03-21T19:20:58.817Z,13
2023-03-21T19:40:59.458Z,12.7
2023-03-21T20:01:02.299Z,12.6
2023-03-21T20:21:01.962Z,12.5
2023-03-21T20:41:01.587Z,12.4
2023-03-21T21:00:59.639Z,12.4
2023-03-21T21:20:59.406Z,12.2
2023-03-21T21:40:59.223Z,12.1
2023-03-21T22:00:59.235Z,12
2023-03-21T22:20:59.025Z,12.2
2023-03-21T22:41:00.046Z,12.1
2023-03-21T23:01:06.403Z,11.9
2023-03-21T23:21:00.473Z,11.8
2023-03-21T23:40:59.474Z,11.7
